sensor_id;sensor_type;location;lat;lon;timestamp;pressure;altitude;pressure_sealevel;temperature;humidity
59240;BME280;45010;53.640;10.578;2022-11-20T00:00:20;100487.63;;;24.16;38.66
59240;BME280;45010;53.640;10.578;2022-11-20T00:03:20;100475.91;;;24.05;38.48
59240;BME280;45010;53.640;10.578;2022-11-20T00:06:22;100477.13;;;24.09;38.66
59240;BME280;45010;53.640;10.578;2022-11-20T00:09:23;100492.97;;;24.16;38.50
59240;BME280;45010;53.640;10.578;2022-11-20T00:12:23;100493.56;;;24.18;38.50
59240;BME280;45010;53.640;10.578;2022-11-20T00:15:23;100489.03;;;24.18;38.48
59240;BME280;45010;53.640;10.578;2022-11-20T00:18:25;100482.78;;;24.13;38.37
59240;BME280;45010;53.640;10.578;2022-11-20T00:21:27;100491.47;;;24.20;38.39
59240;BME280;45010;53.640;10.578;2022-11-20T00:24:27;100486.13;;;24.20;38.36
59240;BME280;45010;53.640;10.578;2022-11-20T00:27:28;100490.41;;;24.21;38.49
59240;BME280;45010;53.640;10.578;2022-11-20T00:30:28;100490.41;;;24.21;38.46
59240;BME280;45010;53.640;10.578;2022-11-20T00:33:29;100492.03;;;24.22;38.31
59240;BME280;45010;53.640;10.578;2022-11-20T00:36:32;100482.31;;;24.16;38.45
59240;BME280;45010;53.640;10.578;2022-11-20T00:39:32;100487.50;;;24.23;38.34
59240;BME280;45010;53.640;10.578;2022-11-20T00:42:33;100484.03;;;24.22;38.17
59240;BME280;45010;53.640;10.578;2022-11-20T00:45:33;100403.25;;;23.69;38.42
59240;BME280;45010;53.640;10.578;2022-11-20T00:48:34;100478.38;;;24.18;38.23
59240;BME280;45010;53.640;10.578;2022-11-20T00:51:35;100489.69;;;24.26;38.43
59240;BME280;45010;53.640;10.578;2022-11-20T00:54:35;100485.19;;;24.26;38.40
59240;BME280;45010;53.640;10.578;2022-11-20T00:57:35;100487.84;;;24.26;38.19
59240;BME280;45010;53.640;10.578;2022-11-20T01:00:36;100492.13;;;24.27;38.14
59240;BME280;45010;53.640;10.578;2022-11-20T01:03:39;100473.63;;;24.21;38.25
59240;BME280;45010;53.640;10.578;2022-11-20T01:06:39;100482.53;;;24.26;38.20
59240;BME280;45010;53.640;10.578;2022-11-20T01:09:40;100480.91;;;24.25;38.23
59240;BME280;45010;53.640;10.578;2022-11-20T01:12:40;100475.59;;;24.25;38.21
59240;BME280;45010;53.640;10.578;2022-11-20T01:15:40;100477.75;;;24.28;37.97
59240;BME280;45010;53.640;10.578;2022-11-20T01:18:43;100465.84;;;24.19;38.06
59240;BME280;45010;53.640;10.578;2022-11-20T01:21:45;100470.38;;;24.18;38.17
59240;BME280;45010;53.640;10.578;2022-11-20T01:24:46;100465.38;;;24.22;37.86
59240;BME280;45010;53.640;10.578;2022-11-20T01:27:46;100471.97;;;24.20;37.96
59240;BME280;45010;53.640;10.578;2022-11-20T01:30:47;100465.25;;;24.17;37.33
59240;BME280;45010;53.640;10.578;2022-11-20T01:33:49;100451.72;;;24.07;37.76
59240;BME280;45010;53.640;10.578;2022-11-20T01:36:51;100458.22;;;24.11;38.02
59240;BME280;45010;53.640;10.578;2022-11-20T01:39:52;100453.94;;;24.10;38.04
59240;BME280;45010;53.640;10.578;2022-11-20T01:43:06;100457.88;;;24.07;37.98
59240;BME280;45010;53.640;10.578;2022-11-20T01:46:21;100435.19;;;23.92;37.96
59240;BME280;45010;53.640;10.578;2022-11-20T01:49:29;100445.72;;;23.99;37.84
59240;BME280;45010;53.640;10.578;2022-11-20T01:52:37;100439.78;;;23.97;38.02
59240;BME280;45010;53.640;10.578;2022-11-20T01:55:44;100437.63;;;23.94;38.09
59240;BME280;45010;53.640;10.578;2022-11-20T01:58:57;100422.22;;;23.84;38.27
59240;BME280;45010;53.640;10.578;2022-11-20T02:01:58;100428.69;;;23.88;38.07
59240;BME280;45010;53.640;10.578;2022-11-20T02:05:04;100428.34;;;23.85;37.94
59240;BME280;45010;53.640;10.578;2022-11-20T02:08:11;100419.91;;;23.76;38.07
59240;BME280;45010;53.640;10.578;2022-11-20T02:11:11;100430.44;;;23.83;38.24
59240;BME280;45010;53.640;10.578;2022-11-20T02:14:13;100420.25;;;23.80;37.94
59240;BME280;45010;53.640;10.578;2022-11-20T02:17:14;100422.34;;;23.77;38.05
59240;BME280;45010;53.640;10.578;2022-11-20T02:20:14;100416.66;;;23.74;38.14
59240;BME280;45010;53.640;10.578;2022-11-20T02:24:31;100409.97;;;23.71;38.08
59240;BME280;45010;53.640;10.578;2022-11-20T02:27:05;100416.78;;;23.67;38.02
59240;BME280;45010;53.640;10.578;2022-11-20T02:30:08;100406.59;;;23.64;38.01
59240;BME280;45010;53.640;10.578;2022-11-20T02:33:10;100404.41;;;23.61;38.07
59240;BME280;45010;53.640;10.578;2022-11-20T02:36:14;100395.72;;;23.54;38.25
59240;BME280;45010;53.640;10.578;2022-11-20T02:39:15;100405.91;;;23.57;38.15
59240;BME280;45010;53.640;10.578;2022-11-20T02:42:17;100401.06;;;23.54;38.45
59240;BME280;45010;53.640;10.578;2022-11-20T02:45:17;100403.13;;;23.51;38.32
59240;BME280;45010;53.640;10.578;2022-11-20T02:48:17;100400.72;;;23.50;38.52
59240;BME280;45010;53.640;10.578;2022-11-20T02:51:18;100400.34;;;23.46;37.70
59240;BME280;45010;53.640;10.578;2022-11-20T02:54:18;100405.09;;;23.44;38.07
59240;BME280;45010;53.640;10.578;2022-11-20T02:57:18;100397.56;;;23.41;38.34
59240;BME280;45010;53.640;10.578;2022-11-20T03:00:19;100395.97;;;23.40;38.20
59240;BME280;45010;53.640;10.578;2022-11-20T03:03:19;100381.00;;;23.27;38.50
59240;BME280;45010;53.640;10.578;2022-11-20T03:06:19;100317.81;;;22.87;38.39
59240;BME280;45010;53.640;10.578;2022-11-20T03:09:20;100398.94;;;23.32;38.39
59240;BME280;45010;53.640;10.578;2022-11-20T03:12:20;100392.47;;;23.28;38.64
59240;BME280;45010;53.640;10.578;2022-11-20T03:15:22;100394.53;;;23.25;38.57
59240;BME280;45010;53.640;10.578;2022-11-20T03:18:22;100391.28;;;23.23;38.69
59240;BME280;45010;53.640;10.578;2022-11-20T03:21:22;100391.72;;;23.20;38.83
59240;BME280;45010;53.640;10.578;2022-11-20T03:24:23;100385.03;;;23.18;38.46
59240;BME280;45010;53.640;10.578;2022-11-20T03:27:23;100389.78;;;23.16;38.80
59240;BME280;45010;53.640;10.578;2022-11-20T03:30:23;100396.34;;;23.13;38.67
59240;BME280;45010;53.640;10.578;2022-11-20T03:33:24;100393.13;;;23.11;38.96
59240;BME280;45010;53.640;10.578;2022-11-20T03:36:24;100370.81;;;23.00;38.62
59240;BME280;45010;53.640;10.578;2022-11-20T03:39:25;100391.16;;;23.06;38.67
59240;BME280;45010;53.640;10.578;2022-11-20T03:42:26;100380.16;;;23.03;38.72
59240;BME280;45010;53.640;10.578;2022-11-20T03:45:45;100378.19;;;22.98;39.13
59240;BME280;45010;53.640;10.578;2022-11-20T03:48:45;100361.75;;;22.89;38.93
59240;BME280;45010;53.640;10.578;2022-11-20T03:51:45;100374.13;;;22.95;39.22
59240;BME280;45010;53.640;10.578;2022-11-20T03:54:46;100367.19;;;22.94;39.24
59240;BME280;45010;53.640;10.578;2022-11-20T03:57:46;100367.19;;;22.94;38.97
59240;BME280;45010;53.640;10.578;2022-11-20T04:00:46;100361.75;;;22.89;39.00
59240;BME280;45010;53.640;10.578;2022-11-20T04:03:47;100354.31;;;22.79;39.24
59240;BME280;45010;53.640;10.578;2022-11-20T04:06:48;100368.56;;;22.85;38.92
59240;BME280;45010;53.640;10.578;2022-11-20T04:09:48;100366.94;;;22.84;39.03
59240;BME280;45010;53.640;10.578;2022-11-20T04:12:49;100366.34;;;22.82;39.44
59240;BME280;45010;53.640;10.578;2022-11-20T04:15:49;100373.53;;;22.81;39.02
59240;BME280;45010;53.640;10.578;2022-11-20T04:18:58;100348.41;;;22.65;39.18
59240;BME280;45010;53.640;10.578;2022-11-20T04:21:58;100356.19;;;22.79;39.21
59240;BME280;45010;53.640;10.578;2022-11-20T04:24:58;100354.78;;;22.76;39.55
59240;BME280;45010;53.640;10.578;2022-11-20T04:27:59;100356.63;;;22.76;39.22
59240;BME280;45010;53.640;10.578;2022-11-20T04:31:11;100350.84;;;22.67;39.12
59240;BME280;45010;53.640;10.578;2022-11-20T04:34:11;100268.50;;;22.17;39.36
59240;BME280;45010;53.640;10.578;2022-11-20T04:37:12;100352.81;;;22.71;39.56
59240;BME280;45010;53.640;10.578;2022-11-20T04:40:13;100344.72;;;22.66;39.56
59240;BME280;45010;53.640;10.578;2022-11-20T04:43:13;100354.06;;;22.69;39.43
59240;BME280;45010;53.640;10.578;2022-11-20T04:46:14;100329.69;;;22.60;39.75
59240;BME280;45010;53.640;10.578;2022-11-20T04:49:15;100338.66;;;22.59;39.74
59240;BME280;45010;53.640;10.578;2022-11-20T04:52:15;100345.72;;;22.65;39.77
59240;BME280;45010;53.640;10.578;2022-11-20T04:55:15;100337.75;;;22.65;39.83
59240;BME280;45010;53.640;10.578;2022-11-20T04:58:16;100341.47;;;22.64;39.26
59240;BME280;45010;53.640;10.578;2022-11-20T05:01:21;100332.22;;;22.55;39.40
59240;BME280;45010;53.640;10.578;2022-11-20T05:04:22;100338.22;;;22.62;39.34
59240;BME280;45010;53.640;10.578;2022-11-20T05:07:23;100339.03;;;22.63;39.50
59240;BME280;45010;53.640;10.578;2022-11-20T05:10:24;100338.22;;;22.62;39.59
59240;BME280;45010;53.640;10.578;2022-11-20T05:13:24;100336.63;;;22.61;39.86
59240;BME280;45010;53.640;10.578;2022-11-20T05:16:25;100323.53;;;22.60;39.43
59240;BME280;45010;53.640;10.578;2022-11-20T05:19:25;100327.03;;;22.60;39.79
59240;BME280;45010;53.640;10.578;2022-11-20T05:22:26;100326.41;;;22.58;39.64
59240;BME280;45010;53.640;10.578;2022-11-20T05:25:26;100312.56;;;22.56;39.59
59240;BME280;45010;53.640;10.578;2022-11-20T05:28:28;100303.59;;;22.50;39.70
59240;BME280;45010;53.640;10.578;2022-11-20T05:31:29;100316.25;;;22.55;39.47
59240;BME280;45010;53.640;10.578;2022-11-20T05:34:29;100308.28;;;22.55;39.64
59240;BME280;45010;53.640;10.578;2022-11-20T05:37:29;100303.41;;;22.52;39.53
59240;BME280;45010;53.640;10.578;2022-11-20T05:40:30;100300.38;;;22.48;39.94
59240;BME280;45010;53.640;10.578;2022-11-20T05:43:38;100309.31;;;22.54;39.67
59240;BME280;45010;53.640;10.578;2022-11-20T05:46:38;100299.72;;;22.53;40.11
59240;BME280;45010;53.640;10.578;2022-11-20T05:49:39;100303.41;;;22.52;39.96
59240;BME280;45010;53.640;10.578;2022-11-20T05:52:39;100264.63;;;22.32;39.79
59240;BME280;45010;53.640;10.578;2022-11-20T05:55:40;100306.06;;;22.52;40.17
59240;BME280;45010;53.640;10.578;2022-11-20T05:58:40;100298.75;;;22.47;39.99
59240;BME280;45010;53.640;10.578;2022-11-20T06:01:41;100296.69;;;22.49;39.92
59240;BME280;45010;53.640;10.578;2022-11-20T06:04:42;100301.19;;;22.49;39.92
59240;BME280;45010;53.640;10.578;2022-11-20T06:07:42;100299.56;;;22.48;39.98
59240;BME280;45010;53.640;10.578;2022-11-20T06:10:43;100305.69;;;22.48;40.17
59240;BME280;45010;53.640;10.578;2022-11-20T06:13:44;100289.03;;;22.41;39.83
59240;BME280;45010;53.640;10.578;2022-11-20T06:16:44;100299.56;;;22.48;39.76
59240;BME280;45010;53.640;10.578;2022-11-20T06:19:45;100304.28;;;22.46;40.13
59240;BME280;45010;53.640;10.578;2022-11-20T06:22:45;100281.03;;;22.29;40.11
59240;BME280;45010;53.640;10.578;2022-11-20T06:25:45;100301.06;;;22.43;39.86
59240;BME280;45010;53.640;10.578;2022-11-20T06:28:46;100285.53;;;22.28;40.18
59240;BME280;45010;53.640;10.578;2022-11-20T06:31:46;100306.38;;;22.43;40.00
59240;BME280;45010;53.640;10.578;2022-11-20T06:34:47;100309.81;;;22.44;40.02
59240;BME280;45010;53.640;10.578;2022-11-20T06:37:47;100305.34;;;22.44;40.23
59240;BME280;45010;53.640;10.578;2022-11-20T06:40:47;100298.41;;;22.43;40.16
59240;BME280;45010;53.640;10.578;2022-11-20T06:43:48;100286.69;;;22.33;40.38
59240;BME280;45010;53.640;10.578;2022-11-20T06:46:48;100303.13;;;22.41;40.39
59240;BME280;45010;53.640;10.578;2022-11-20T06:49:48;100300.47;;;22.41;40.27
59240;BME280;45010;53.640;10.578;2022-11-20T06:52:49;100304.16;;;22.40;40.06
59240;BME280;45010;53.640;10.578;2022-11-20T06:55:50;100298.84;;;22.40;40.42
59240;BME280;45010;53.640;10.578;2022-11-20T06:58:50;100274.78;;;22.23;40.49
59240;BME280;45010;53.640;10.578;2022-11-20T07:01:51;100281.63;;;22.31;40.25
59240;BME280;45010;53.640;10.578;2022-11-20T07:04:51;100304.38;;;22.39;39.97
59240;BME280;45010;53.640;10.578;2022-11-20T07:07:51;100296.41;;;22.39;40.27
59240;BME280;45010;53.640;10.578;2022-11-20T07:10:56;100272.25;;;22.28;40.46
59240;BME280;45010;53.640;10.578;2022-11-20T07:13:57;100295.63;;;22.38;40.29
59240;BME280;45010;53.640;10.578;2022-11-20T07:16:57;100297.22;;;22.39;40.21
59240;BME280;45010;53.640;10.578;2022-11-20T07:19:57;100295.63;;;22.38;40.31
59240;BME280;45010;53.640;10.578;2022-11-20T07:22:58;100283.69;;;22.29;40.27
59240;BME280;45010;53.640;10.578;2022-11-20T07:26:03;100289.59;;;22.31;40.59
59240;BME280;45010;53.640;10.578;2022-11-20T07:29:03;100305.66;;;22.36;40.49
59240;BME280;45010;53.640;10.578;2022-11-20T07:32:04;100308.31;;;22.36;40.65
59240;BME280;45010;53.640;10.578;2022-11-20T07:35:05;100303.81;;;22.37;40.63
59240;BME280;45010;53.640;10.578;2022-11-20T07:38:05;100304.28;;;22.34;40.26
59240;BME280;45010;53.640;10.578;2022-11-20T07:41:05;100308.31;;;22.36;40.48
59240;BME280;45010;53.640;10.578;2022-11-20T07:44:06;100307.16;;;22.32;40.39
59240;BME280;45010;53.640;10.578;2022-11-20T07:47:06;100303.00;;;22.36;40.19
59240;BME280;45010;53.640;10.578;2022-11-20T07:50:07;100303.00;;;22.36;40.17
59240;BME280;45010;53.640;10.578;2022-11-20T07:53:07;100278.13;;;22.19;40.25
59240;BME280;45010;53.640;10.578;2022-11-20T07:56:08;100299.31;;;22.37;40.33
59240;BME280;45010;53.640;10.578;2022-11-20T07:59:08;100300.94;;;22.38;40.34
59240;BME280;45010;53.640;10.578;2022-11-20T08:02:10;100292.25;;;22.31;40.20
59240;BME280;45010;53.640;10.578;2022-11-20T08:05:11;100297.44;;;22.38;40.22
59240;BME280;45010;53.640;10.578;2022-11-20T08:08:11;100297.22;;;22.39;40.52
59240;BME280;45010;53.640;10.578;2022-11-20T08:11:11;100283.81;;;22.34;40.65
59240;BME280;45010;53.640;10.578;2022-11-20T08:14:30;100294.00;;;22.37;40.85
59240;BME280;45010;53.640;10.578;2022-11-20T08:17:31;100283.81;;;22.34;40.93
59240;BME280;45010;53.640;10.578;2022-11-20T08:20:31;100291.47;;;22.42;40.87
59240;BME280;45010;53.640;10.578;2022-11-20T08:23:32;100291.84;;;22.46;40.74
59240;BME280;45010;53.640;10.578;2022-11-20T08:26:33;100284.44;;;22.48;41.05
59240;BME280;45010;53.640;10.578;2022-11-20T08:29:33;100290.13;;;22.52;40.64
59240;BME280;45010;53.640;10.578;2022-11-20T08:32:33;100297.66;;;22.55;41.19
59240;BME280;45010;53.640;10.578;2022-11-20T08:35:36;100290.03;;;22.59;41.08
59240;BME280;45010;53.640;10.578;2022-11-20T08:38:37;100295.72;;;22.62;40.88
59240;BME280;45010;53.640;10.578;2022-11-20T08:41:38;100296.88;;;22.66;40.84
59240;BME280;45010;53.640;10.578;2022-11-20T08:44:38;100298.03;;;22.70;40.57
59240;BME280;45010;53.640;10.578;2022-11-20T08:47:38;100291.22;;;22.75;40.49
59240;BME280;45010;53.640;10.578;2022-11-20T08:50:39;100296.31;;;22.76;40.50
59240;BME280;45010;53.640;10.578;2022-11-20T08:53:39;100290.88;;;22.83;40.31
59240;BME280;45010;53.640;10.578;2022-11-20T08:56:40;100297.34;;;22.87;40.13
59240;BME280;45010;53.640;10.578;2022-11-20T08:59:40;100295.03;;;22.91;40.47
59240;BME280;45010;53.640;10.578;2022-11-20T09:02:41;100285.22;;;22.91;39.98
59240;BME280;45010;53.640;10.578;2022-11-20T09:05:41;100289.63;;;22.97;40.27
59240;BME280;45010;53.640;10.578;2022-11-20T09:08:42;100293.41;;;23.02;39.75
59240;BME280;45010;53.640;10.578;2022-11-20T09:11:43;100286.97;;;22.97;39.77
59240;BME280;45010;53.640;10.578;2022-11-20T09:14:43;100292.50;;;23.08;40.02
59240;BME280;45010;53.640;10.578;2022-11-20T09:17:56;100285.69;;;23.12;39.91
59240;BME280;45010;53.640;10.578;2022-11-20T09:20:59;100255.50;;;22.94;39.92
59240;BME280;45010;53.640;10.578;2022-11-20T09:23:59;100300.16;;;23.16;40.02
59240;BME280;45010;53.640;10.578;2022-11-20T09:27:04;100281.41;;;23.11;39.51
59240;BME280;45010;53.640;10.578;2022-11-20T09:30:05;100305.81;;;23.20;39.82
59240;BME280;45010;53.640;10.578;2022-11-20T09:33:06;100282.56;;;23.15;39.44
59240;BME280;45010;53.640;10.578;2022-11-20T09:36:06;100298.16;;;23.23;39.49
59240;BME280;45010;53.640;10.578;2022-11-20T09:39:06;100295.06;;;23.27;39.36
59240;BME280;45010;53.640;10.578;2022-11-20T09:49:00;100292.50;;;23.32;39.38
59240;BME280;45010;53.640;10.578;2022-11-20T09:52:22;100288.84;;;23.33;39.60
59240;BME280;45010;53.640;10.578;2022-11-20T09:55:28;100295.78;;;23.34;39.50
59240;BME280;45010;53.640;10.578;2022-11-20T09:58:33;100293.69;;;23.36;39.31
59240;BME280;45010;53.640;10.578;2022-11-20T10:01:37;100280.25;;;23.31;39.61
59240;BME280;45010;53.640;10.578;2022-11-20T10:04:44;100283.53;;;23.33;39.19
59240;BME280;45010;53.640;10.578;2022-11-20T10:07:52;100250.16;;;23.18;39.41
59240;BME280;45010;53.640;10.578;2022-11-20T10:14:22;100283.72;;;23.43;39.42
59240;BME280;45010;53.640;10.578;2022-11-20T10:21:24;100277.94;;;23.46;39.06
59240;BME280;45010;53.640;10.578;2022-11-20T10:24:36;100270.53;;;23.48;39.17
59240;BME280;45010;53.640;10.578;2022-11-20T10:28:07;100272.13;;;23.49;39.31
59240;BME280;45010;53.640;10.578;2022-11-20T10:31:14;100239.31;;;23.32;39.27
59240;BME280;45010;53.640;10.578;2022-11-20T10:34:28;100272.72;;;23.51;39.23
59240;BME280;45010;53.640;10.578;2022-11-20T10:37:32;100269.00;;;23.53;39.03
59240;BME280;45010;53.640;10.578;2022-11-20T10:40:38;100277.00;;;23.53;39.30
59240;BME280;45010;53.640;10.578;2022-11-20T10:43:40;100274.91;;;23.55;39.41
59240;BME280;45010;53.640;10.578;2022-11-20T10:46:45;100278.13;;;23.57;39.39
59240;BME280;45010;53.640;10.578;2022-11-20T10:49:49;100272.81;;;23.57;39.18
59240;BME280;45010;53.640;10.578;2022-11-20T10:56:17;100238.69;;;23.42;39.00
59240;BME280;45010;53.640;10.578;2022-11-20T10:59:32;100267.03;;;23.60;39.05
59240;BME280;45010;53.640;10.578;2022-11-20T11:02:44;100259.59;;;23.62;38.87
59240;BME280;45010;53.640;10.578;2022-11-20T11:05:50;100259.59;;;23.62;39.15
59240;BME280;45010;53.640;10.578;2022-11-20T11:08:56;100250.50;;;23.58;39.04
59240;BME280;45010;53.640;10.578;2022-11-20T11:11:58;100246.19;;;23.57;38.79
59240;BME280;45010;53.640;10.578;2022-11-20T11:14:58;100259.94;;;23.65;39.06
59240;BME280;45010;53.640;10.578;2022-11-20T11:17:59;100262.38;;;23.67;39.16
59240;BME280;45010;53.640;10.578;2022-11-20T11:21:01;100250.00;;;23.61;38.89
59240;BME280;45010;53.640;10.578;2022-11-20T11:24:03;100254.97;;;23.69;39.21
59240;BME280;45010;53.640;10.578;2022-11-20T11:27:11;100241.56;;;23.64;38.87
59240;BME280;45010;53.640;10.578;2022-11-20T11:30:17;100245.69;;;23.72;38.97
59240;BME280;45010;53.640;10.578;2022-11-20T11:36:23;100241.19;;;23.72;38.92
59240;BME280;45010;53.640;10.578;2022-11-20T11:39:27;100250.31;;;23.76;38.80
59240;BME280;45010;53.640;10.578;2022-11-20T11:42:29;100245.56;;;23.78;38.66
59240;BME280;45010;53.640;10.578;2022-11-20T11:45:30;100243.72;;;23.79;39.02
59240;BME280;45010;53.640;10.578;2022-11-20T11:48:30;100228.53;;;23.80;38.82
59240;BME280;45010;53.640;10.578;2022-11-20T11:52:07;100225.84;;;23.80;38.93
59240;BME280;45010;53.640;10.578;2022-11-20T11:55:15;100230.13;;;23.81;39.12
59240;BME280;45010;53.640;10.578;2022-11-20T11:58:31;100227.47;;;23.81;38.77
59240;BME280;45010;53.640;10.578;2022-11-20T12:01:38;100228.06;;;23.83;38.83
59240;BME280;45010;53.640;10.578;2022-11-20T12:04:50;100222.72;;;23.83;38.97
59240;BME280;45010;53.640;10.578;2022-11-20T12:11:11;100225.50;;;23.88;38.84
59240;BME280;45010;53.640;10.578;2022-11-20T12:14:27;100223.38;;;23.90;39.23
59240;BME280;45010;53.640;10.578;2022-11-20T12:17:31;100223.38;;;23.90;38.88
59240;BME280;45010;53.640;10.578;2022-11-20T12:20:38;100191.88;;;23.70;39.06
59240;BME280;45010;53.640;10.578;2022-11-20T12:27:18;100219.69;;;23.91;39.38
59240;BME280;45010;53.640;10.578;2022-11-20T12:30:24;100217.59;;;23.93;39.22
59240;BME280;45010;53.640;10.578;2022-11-20T12:36:43;100198.88;;;23.88;39.09
59240;BME280;45010;53.640;10.578;2022-11-20T12:39:49;100205.63;;;23.96;39.17
59240;BME280;45010;53.640;10.578;2022-11-20T12:42:57;100198.97;;;23.93;39.29
59240;BME280;45010;53.640;10.578;2022-11-20T12:49:37;100201.38;;;23.95;39.11
59240;BME280;45010;53.640;10.578;2022-11-20T12:53:06;100200.06;;;23.97;39.38
59240;BME280;45010;53.640;10.578;2022-11-20T12:59:51;100202.28;;;24.00;39.44
59240;BME280;45010;53.640;10.578;2022-11-20T13:06:20;100185.38;;;23.95;39.46
59240;BME280;45010;53.640;10.578;2022-11-20T13:09:22;100182.50;;;23.96;39.32
59240;BME280;45010;53.640;10.578;2022-11-20T13:13:21;100199.72;;;24.05;39.49
59240;BME280;45010;53.640;10.578;2022-11-20T13:16:16;100193.56;;;24.05;39.43
59240;BME280;45010;53.640;10.578;2022-11-20T13:19:19;100194.38;;;24.05;39.43
59240;BME280;45010;53.640;10.578;2022-11-20T13:22:28;100188.00;;;24.07;39.40
59240;BME280;45010;53.640;10.578;2022-11-20T13:25:37;100188.59;;;24.09;39.43
59240;BME280;45010;53.640;10.578;2022-11-20T13:28:38;100186.97;;;24.08;39.33
59240;BME280;45010;53.640;10.578;2022-11-20T13:31:43;100178.88;;;24.02;39.43
59240;BME280;45010;53.640;10.578;2022-11-20T13:34:59;100181.41;;;24.09;39.32
59240;BME280;45010;53.640;10.578;2022-11-20T13:41:07;100179.53;;;24.10;39.53
59240;BME280;45010;53.640;10.578;2022-11-20T13:44:31;100173.31;;;24.04;39.17
59240;BME280;45010;53.640;10.578;2022-11-20T13:47:35;100158.50;;;23.96;39.54
59240;BME280;45010;53.640;10.578;2022-11-20T13:54:07;100183.25;;;24.09;39.51
59240;BME280;45010;53.640;10.578;2022-11-20T14:00:44;100161.28;;;24.01;39.47
59240;BME280;45010;53.640;10.578;2022-11-20T14:03:46;100158.59;;;24.01;39.50
59240;BME280;45010;53.640;10.578;2022-11-20T14:06:48;100179.53;;;24.10;39.55
59240;BME280;45010;53.640;10.578;2022-11-20T14:09:51;100166.44;;;24.08;39.43
59240;BME280;45010;53.640;10.578;2022-11-20T14:12:52;100155.94;;;24.01;39.33
59240;BME280;45010;53.640;10.578;2022-11-20T14:15:56;100173.41;;;24.09;39.42
59240;BME280;45010;53.640;10.578;2022-11-20T14:19:00;100146.72;;;23.92;39.50
59240;BME280;45010;53.640;10.578;2022-11-20T14:22:22;100151.75;;;24.05;39.44
59240;BME280;45010;53.640;10.578;2022-11-20T14:25:25;100155.94;;;24.01;39.54
59240;BME280;45010;53.640;10.578;2022-11-20T14:28:29;100143.69;;;24.00;39.66
59240;BME280;45010;53.640;10.578;2022-11-20T14:31:29;100160.34;;;24.08;39.46
59240;BME280;45010;53.640;10.578;2022-11-20T14:34:32;100157.44;;;24.09;39.50
59240;BME280;45010;53.640;10.578;2022-11-20T14:37:39;100149.69;;;24.08;39.68
59240;BME280;45010;53.640;10.578;2022-11-20T14:40:41;100147.13;;;24.01;39.63
59240;BME280;45010;53.640;10.578;2022-11-20T14:43:45;100120.59;;;23.89;39.33
59240;BME280;45010;53.640;10.578;2022-11-20T14:46:47;100147.44;;;24.04;39.29
59240;BME280;45010;53.640;10.578;2022-11-20T14:49:48;100134.06;;;23.99;39.26
59240;BME280;45010;53.640;10.578;2022-11-20T14:52:50;100144.34;;;24.08;39.47
59240;BME280;45010;53.640;10.578;2022-11-20T14:56:09;100140.88;;;24.07;39.43
59240;BME280;45010;53.640;10.578;2022-11-20T14:59:09;100136.56;;;24.06;39.28
59240;BME280;45010;53.640;10.578;2022-11-20T15:02:11;100139.22;;;24.06;39.38
59240;BME280;45010;53.640;10.578;2022-11-20T15:05:13;100125.50;;;23.97;39.34
59240;BME280;45010;53.640;10.578;2022-11-20T15:08:14;100119.13;;;23.98;39.33
59240;BME280;45010;53.640;10.578;2022-11-20T15:11:19;100134.13;;;24.04;39.39
59240;BME280;45010;53.640;10.578;2022-11-20T15:14:21;100113.16;;;23.91;39.32
59240;BME280;45010;53.640;10.578;2022-11-20T15:17:23;100123.44;;;23.99;39.33
59240;BME280;45010;53.640;10.578;2022-11-20T15:20:26;100127.69;;;24.00;39.20
59240;BME280;45010;53.640;10.578;2022-11-20T15:23:28;100131.81;;;24.08;39.32
59240;BME280;45010;53.640;10.578;2022-11-20T15:26:29;100110.56;;;23.96;39.43
59240;BME280;45010;53.640;10.578;2022-11-20T15:29:29;100126.72;;;24.07;39.35
59240;BME280;45010;53.640;10.578;2022-11-20T15:32:29;100129.38;;;24.07;39.54
59240;BME280;45010;53.640;10.578;2022-11-20T15:35:30;100117.03;;;24.00;39.50
59240;BME280;45010;53.640;10.578;2022-11-20T15:38:30;100115.44;;;23.99;39.42
59240;BME280;45010;53.640;10.578;2022-11-20T15:41:30;100120.59;;;24.06;39.23
59240;BME280;45010;53.640;10.578;2022-11-20T15:44:31;100125.13;;;24.05;39.48
59240;BME280;45010;53.640;10.578;2022-11-20T15:47:34;100107.44;;;23.99;39.38
59240;BME280;45010;53.640;10.578;2022-11-20T15:51:03;100123.03;;;24.08;39.19
59240;BME280;45010;53.640;10.578;2022-11-20T15:54:14;100108.47;;;23.98;39.18
59240;BME280;45010;53.640;10.578;2022-11-20T15:57:14;100120.59;;;24.06;39.36
59240;BME280;45010;53.640;10.578;2022-11-20T16:00:15;100122.47;;;24.05;39.09
59240;BME280;45010;53.640;10.578;2022-11-20T16:03:16;100125.91;;;24.06;39.41
59240;BME280;45010;53.640;10.578;2022-11-20T16:06:17;100117.91;;;24.06;39.16
59240;BME280;45010;53.640;10.578;2022-11-20T16:09:17;100109.94;;;24.06;39.18
59240;BME280;45010;53.640;10.578;2022-11-20T16:12:17;100105.88;;;24.03;39.16
59240;BME280;45010;53.640;10.578;2022-11-20T16:15:38;100116.06;;;24.07;38.89
59240;BME280;45010;53.640;10.578;2022-11-20T16:18:49;100088.13;;;23.92;39.18
59240;BME280;45010;53.640;10.578;2022-11-20T16:21:49;100093.00;;;23.95;39.42
59240;BME280;45010;53.640;10.578;2022-11-20T16:24:51;100111.34;;;24.09;38.93
59240;BME280;45010;53.640;10.578;2022-11-20T16:27:51;100109.72;;;24.08;39.17
59240;BME280;45010;53.640;10.578;2022-11-20T16:30:52;100113.75;;;24.10;38.71
59240;BME280;45010;53.640;10.578;2022-11-20T16:33:53;100107.50;;;24.04;39.25
59240;BME280;45010;53.640;10.578;2022-11-20T16:36:54;100114.31;;;24.12;39.12